Clare Christine — V2DT7 — position and weather

sailwx.info

Track history (hours):
 
Tides and Currents Weather Stations Pressure Air Temp Water Temp Dewpoint Dewpoint Depression Visibility Wind Speed Wind Dir Waves Ship Positions

Clare Christine

Last reported at 2015-Jul-30 21:23 UTC. Time now 2015-Jul-30 23:05 UTC.
Position N 50°22' W 001°27'.

Length 89 m; draft 5.4 m.

Type: Cargo ship. MMSI: 305379000.

Date/timePositionNaut miles runAvg speedWind from/ knotsBaromVisibWave heightAir tempDewpointWater temp
2015-Jul-30 21:23N 50°22' W 001°27'6 7.5
2015-Jul-30 20:33N 50°23' W 001°17'7 6.5
2015-Jul-30 19:25N 50°24' W 001°06'5 6.2
2015-Jul-30 18:33N 50°25' W 000°58'39 9.4
2015-Jul-30 14:25N 50°32' E 000°02'1011.0
2015-Jul-30 13:33N 50°35' E 000°16'1110.6
2015-Jul-30 12:33N 50°38' E 000°32'1010.0
2015-Jul-30 11:33N 50°44' E 000°45'9 9.3
2015-Jul-30 10:33N 50°49' E 000°58'9 9.0
2015-Jul-30 09:33N 50°55' E 001°09'9 9.3
2015-Jul-30 08:33N 51°01' E 001°20'1211.5
2015-Jul-30 07:33N 51°08' E 001°35'1312.6
2015-Jul-30 06:33N 51°17' E 001°49'1111.1
2015-Jul-30 05:33N 51°24' E 002°02'1010.1
2015-Jul-30 04:33N 51°20' E 002°17'1110.3
2015-Jul-30 03:30N 51°23' E 002°34'9 9.8
2015-Jul-30 02:33N 51°22' E 002°49'10 9.8
2015-Jul-30 01:33N 51°24' E 003°04'9 9.2
2015-Jul-30 00:33N 51°25' E 003°19'8 8.4
2015-Jul-29 23:33N 51°26' E 003°32'7 6.7
2015-Jul-29 22:33N 51°25' E 003°43'6 6.0
2015-Jul-29 21:32N 51°20' E 003°49'6 6.1
2015-Jul-29 20:33N 51°14' E 003°49'8 8.4
2015-Jul-29 19:33N 51°06' E 003°45'0 0.1
2015-Jul-29 18:31N 51°06' E 003°45'0 0.0
2015-Jul-29 17:31N 51°06' E 003°45'0 0.0
2015-Jul-29 16:31N 51°06' E 003°45'0 0.0
2015-Jul-29 15:31N 51°06' E 003°45'0 0.0
2015-Jul-29 14:31N 51°06' E 003°45'0 0.0
2015-Jul-29 13:31N 51°06' E 003°45'0 0.0
2015-Jul-29 12:28N 51°06' E 003°45'0 0.0
2015-Jul-29 11:28N 51°06' E 003°45'0 0.0
2015-Jul-29 10:31N 51°06' E 003°45'0 0.0
2015-Jul-29 09:31N 51°06' E 003°45'0 0.0
2015-Jul-29 08:31N 51°06' E 003°45'0 0.0
2015-Jul-29 07:31N 51°06' E 003°45'0 0.0
2015-Jul-29 06:31N 51°06' E 003°45'0 0.0
2015-Jul-29 05:31N 51°06' E 003°45'0 0.0
2015-Jul-29 04:31N 51°06' E 003°45'0 0.0
2015-Jul-29 03:31N 51°06' E 003°45'0 0.0
2015-Jul-29 02:31N 51°06' E 003°45'0 0.0
2015-Jul-29 01:31N 51°06' E 003°45'0 0.0
2015-Jul-29 00:31N 51°06' E 003°45'0 0.0
2015-Jul-28 23:31N 51°06' E 003°45'0 0.0
2015-Jul-28 22:31N 51°06' E 003°45'0 0.0
2015-Jul-28 21:31N 51°06' E 003°45'0 0.0
2015-Jul-28 20:31N 51°06' E 003°45'0 0.0
2015-Jul-28 19:31N 51°06' E 003°45'0 0.0
2015-Jul-28 18:31N 51°06' E 003°45'0 0.0
2015-Jul-28 17:31N 51°06' E 003°45'0 0.0
2015-Jul-28 16:33N 51°06' E 003°45'0 0.0
2015-Jul-28 15:33N 51°06' E 003°45'0 0.0
2015-Jul-28 14:33N 51°06' E 003°45'4 4.5
2015-Jul-28 13:33N 51°10' E 003°48'8 8.5
2015-Jul-28 12:33N 51°18' E 003°50'4 4.1
2015-Jul-28 11:33N 51°22' E 003°46'7 7.2
2015-Jul-28 10:33N 51°25' E 003°35'0 0.0
2015-Jul-28 09:33N 51°25' E 003°35'4 4.0
2015-Jul-28 08:34N 51°25' E 003°29'1312.8
2015-Jul-28 07:33N 51°23' E 003°09'1211.7
2015-Jul-28 06:33N 51°21' E 002°50'8 7.6
2015-Jul-28 05:34N 51°21' E 002°38'7 7.3
2015-Jul-28 04:33N 51°21' E 002°26'9 9.4
2015-Jul-28 03:34N 51°16' E 002°13'1010.0
2015-Jul-28 02:34N 51°12' E 001°59'1010.0
2015-Jul-28 01:33N 51°06' E 001°46'1010.5
2015-Jul-28 00:34N 50°58' E 001°35'278 8.1
2015-Jul-26 14:12N 50°30' W 005°42'5 7.1
2015-Jul-26 13:33N 50°34' W 005°37'7 7.0
2015-Jul-26 12:33N 50°38' W 005°28'7 6.8
2015-Jul-26 11:33N 50°43' W 005°21'6 6.2
2015-Jul-26 10:33N 50°47' W 005°13'82 2.3
2015-Jul-24 23:27N 51°22' W 003°15'910.2
2015-Jul-24 22:33N 51°26' W 003°01'10 9.9
2015-Jul-24 21:34N 51°30' W 002°47'3 3.1
2015-Jul-24 20:31N 51°31' W 002°42'0 0.0
2015-Jul-24 19:31N 51°31' W 002°42'0 0.0
2015-Jul-24 18:31N 51°31' W 002°42'0 0.0
2015-Jul-24 17:32N 51°31' W 002°42'0 0.0
2015-Jul-24 16:31N 51°31' W 002°42'0 0.0
2015-Jul-24 15:31N 51°31' W 002°42'0 0.0
2015-Jul-24 14:31N 51°31' W 002°42'0 0.0
2015-Jul-24 13:32N 51°31' W 002°42'0 0.0
2015-Jul-24 12:31N 51°31' W 002°42'0 0.0
2015-Jul-24 11:31N 51°31' W 002°42'0 0.0
2015-Jul-24 10:31N 51°31' W 002°42'0 0.0
2015-Jul-24 09:32N 51°31' W 002°42'0 0.0
2015-Jul-24 08:31N 51°31' W 002°42'0 0.0
2015-Jul-24 07:31N 51°31' W 002°42'0 0.0
2015-Jul-24 06:31N 51°31' W 002°42'0 0.0
2015-Jul-24 05:31N 51°31' W 002°42'0 0.0
2015-Jul-24 04:33N 51°31' W 002°42'0 0.0
2015-Jul-24 03:34N 51°31' W 002°42'0 0.0
2015-Jul-24 02:33N 51°31' W 002°42'0 0.0
2015-Jul-24 01:34N 51°31' W 002°42'0 0.0
2015-Jul-24 00:34N 51°31' W 002°42'0 0.0
2015-Jul-23 23:33N 51°31' W 002°42'1 0.6
2015-Jul-23 22:34N 51°30' W 002°43'7 6.7
2015-Jul-23 21:34N 51°28' W 002°53'1212.0
2015-Jul-23 20:33N 51°23' W 003°10'175 7.2
2015-Jul-22 20:19N 53°59' W 005°20'810.6
2015-Jul-22 19:33N 54°07' W 005°18'1010.4
2015-Jul-22 18:33N 54°17' W 005°16'10 9.8
2015-Jul-22 17:34N 54°27' W 005°16'9 8.8
2015-Jul-22 16:34N 54°36' W 005°20'9 9.4
2015-Jul-22 15:34N 54°43' W 005°30'1010.0
2015-Jul-22 14:33N 54°41' W 005°47'6 0.9
2015-Jul-22 08:09N 54°37' W 005°54'0 0.0
2015-Jul-22 06:12N 54°37' W 005°54'0 0.0
2015-Jul-22 04:30N 54°37' W 005°54'0 0.0
2015-Jul-22 03:24N 54°37' W 005°54'0 0.0
2015-Jul-22 02:30N 54°37' W 005°54'0 0.0
2015-Jul-22 01:30N 54°37' W 005°54'0 0.0
2015-Jul-22 00:18N 54°37' W 005°54'0 0.0
2015-Jul-21 23:33N 54°37' W 005°54'0 0.0
2015-Jul-21 22:27N 54°37' W 005°54'0 0.0
2015-Jul-21 21:33N 54°37' W 005°54'0 0.0
2015-Jul-21 20:30N 54°37' W 005°54'0 0.0
2015-Jul-21 19:30N 54°37' W 005°54'0 0.1
2015-Jul-21 18:30N 54°37' W 005°54'0 0.0
2015-Jul-21 17:30N 54°37' W 005°54'0 0.0
2015-Jul-21 16:33N 54°37' W 005°54'0 0.0
2015-Jul-21 15:18N 54°37' W 005°54'0 0.0
2015-Jul-21 14:27N 54°37' W 005°54'0 0.0
2015-Jul-21 13:30N 54°37' W 005°54'0 0.0
2015-Jul-21 12:25N 54°37' W 005°54'0 0.0
2015-Jul-21 11:34N 54°37' W 005°54'5 5.4
2015-Jul-21 10:34N 54°41' W 005°48'8 8.3
2015-Jul-21 09:34N 54°43' W 005°34'7 6.9
2015-Jul-21 08:34N 54°40' W 005°23'1010.1
2015-Jul-21 07:33N 54°32' W 005°13'1111.3
2015-Jul-21 06:33N 54°20' W 005°14'1211.6
2015-Jul-21 05:33N 54°11' W 005°27'1211.5
2015-Jul-21 04:33N 54°03' W 005°41'1110.9
2015-Jul-21 03:34N 53°57' W 005°55'1211.7
2015-Jul-21 02:33N 53°57' W 006°15'5 5.3
2015-Jul-21 01:33N 54°00' W 006°22'1 0.5
2015-Jul-21 00:33N 54°00' W 006°23'0 0.0
2015-Jul-20 23:33N 54°00' W 006°23'0 0.0
2015-Jul-20 22:34N 54°00' W 006°23'0 0.0
2015-Jul-20 21:33N 54°00' W 006°23'  
Track history (hours):
 
Tides and Currents Weather Stations Pressure Air Temp Water Temp Dewpoint Dewpoint Depression Visibility Wind Speed Wind Dir Waves Ship Positions

Clare Christine

Last reported at 2015-Jul-30 21:23 UTC. Time now 2015-Jul-30 23:05 UTC.
Position N 50°22' W 001°27'.

Length 89 m; draft 5.4 m.

Type: Cargo ship. MMSI: 305379000.

Date/timePositionNaut miles runAvg speedWind from/ knotsBaromVisibWave heightAir tempDewpointWater temp
2015-Jul-30 21:23N 50°22' W 001°27'6 7.5
2015-Jul-30 20:33N 50°23' W 001°17'7 6.5
2015-Jul-30 19:25N 50°24' W 001°06'5 6.2
2015-Jul-30 18:33N 50°25' W 000°58'39 9.4
2015-Jul-30 14:25N 50°32' E 000°02'1011.0
2015-Jul-30 13:33N 50°35' E 000°16'1110.6
2015-Jul-30 12:33N 50°38' E 000°32'1010.0
2015-Jul-30 11:33N 50°44' E 000°45'9 9.3
2015-Jul-30 10:33N 50°49' E 000°58'9 9.0
2015-Jul-30 09:33N 50°55' E 001°09'9 9.3
2015-Jul-30 08:33N 51°01' E 001°20'1211.5
2015-Jul-30 07:33N 51°08' E 001°35'1312.6
2015-Jul-30 06:33N 51°17' E 001°49'1111.1
2015-Jul-30 05:33N 51°24' E 002°02'1010.1
2015-Jul-30 04:33N 51°20' E 002°17'1110.3
2015-Jul-30 03:30N 51°23' E 002°34'9 9.8
2015-Jul-30 02:33N 51°22' E 002°49'10 9.8
2015-Jul-30 01:33N 51°24' E 003°04'9 9.2
2015-Jul-30 00:33N 51°25' E 003°19'8 8.4
2015-Jul-29 23:33N 51°26' E 003°32'7 6.7
2015-Jul-29 22:33N 51°25' E 003°43'6 6.0
2015-Jul-29 21:32N 51°20' E 003°49'6 6.1
2015-Jul-29 20:33N 51°14' E 003°49'8 8.4
2015-Jul-29 19:33N 51°06' E 003°45'0 0.1
2015-Jul-29 18:31N 51°06' E 003°45'0 0.0
2015-Jul-29 17:31N 51°06' E 003°45'0 0.0
2015-Jul-29 16:31N 51°06' E 003°45'0 0.0
2015-Jul-29 15:31N 51°06' E 003°45'0 0.0
2015-Jul-29 14:31N 51°06' E 003°45'0 0.0
2015-Jul-29 13:31N 51°06' E 003°45'0 0.0
2015-Jul-29 12:28N 51°06' E 003°45'0 0.0
2015-Jul-29 11:28N 51°06' E 003°45'0 0.0
2015-Jul-29 10:31N 51°06' E 003°45'0 0.0
2015-Jul-29 09:31N 51°06' E 003°45'0 0.0
2015-Jul-29 08:31N 51°06' E 003°45'0 0.0
2015-Jul-29 07:31N 51°06' E 003°45'0 0.0
2015-Jul-29 06:31N 51°06' E 003°45'0 0.0
2015-Jul-29 05:31N 51°06' E 003°45'0 0.0
2015-Jul-29 04:31N 51°06' E 003°45'0 0.0
2015-Jul-29 03:31N 51°06' E 003°45'0 0.0
2015-Jul-29 02:31N 51°06' E 003°45'0 0.0
2015-Jul-29 01:31N 51°06' E 003°45'0 0.0
2015-Jul-29 00:31N 51°06' E 003°45'0 0.0
2015-Jul-28 23:31N 51°06' E 003°45'0 0.0
2015-Jul-28 22:31N 51°06' E 003°45'0 0.0
2015-Jul-28 21:31N 51°06' E 003°45'0 0.0
2015-Jul-28 20:31N 51°06' E 003°45'0 0.0
2015-Jul-28 19:31N 51°06' E 003°45'0 0.0
2015-Jul-28 18:31N 51°06' E 003°45'0 0.0
2015-Jul-28 17:31N 51°06' E 003°45'0 0.0
2015-Jul-28 16:33N 51°06' E 003°45'0 0.0
2015-Jul-28 15:33N 51°06' E 003°45'0 0.0
2015-Jul-28 14:33N 51°06' E 003°45'4 4.5
2015-Jul-28 13:33N 51°10' E 003°48'8 8.5
2015-Jul-28 12:33N 51°18' E 003°50'4 4.1
2015-Jul-28 11:33N 51°22' E 003°46'7 7.2
2015-Jul-28 10:33N 51°25' E 003°35'0 0.0
2015-Jul-28 09:33N 51°25' E 003°35'4 4.0
2015-Jul-28 08:34N 51°25' E 003°29'1312.8
2015-Jul-28 07:33N 51°23' E 003°09'1211.7
2015-Jul-28 06:33N 51°21' E 002°50'8 7.6
2015-Jul-28 05:34N 51°21' E 002°38'7 7.3
2015-Jul-28 04:33N 51°21' E 002°26'9 9.4
2015-Jul-28 03:34N 51°16' E 002°13'1010.0
2015-Jul-28 02:34N 51°12' E 001°59'1010.0
2015-Jul-28 01:33N 51°06' E 001°46'1010.5
2015-Jul-28 00:34N 50°58' E 001°35'278 8.1
2015-Jul-26 14:12N 50°30' W 005°42'5 7.1
2015-Jul-26 13:33N 50°34' W 005°37'7 7.0
2015-Jul-26 12:33N 50°38' W 005°28'7 6.8
2015-Jul-26 11:33N 50°43' W 005°21'6 6.2
2015-Jul-26 10:33N 50°47' W 005°13'82 2.3
2015-Jul-24 23:27N 51°22' W 003°15'910.2
2015-Jul-24 22:33N 51°26' W 003°01'10 9.9
2015-Jul-24 21:34N 51°30' W 002°47'3 3.1
2015-Jul-24 20:31N 51°31' W 002°42'0 0.0
2015-Jul-24 19:31N 51°31' W 002°42'0 0.0
2015-Jul-24 18:31N 51°31' W 002°42'0 0.0
2015-Jul-24 17:32N 51°31' W 002°42'0 0.0
2015-Jul-24 16:31N 51°31' W 002°42'0 0.0
2015-Jul-24 15:31N 51°31' W 002°42'0 0.0
2015-Jul-24 14:31N 51°31' W 002°42'0 0.0
2015-Jul-24 13:32N 51°31' W 002°42'0 0.0
2015-Jul-24 12:31N 51°31' W 002°42'0 0.0
2015-Jul-24 11:31N 51°31' W 002°42'0 0.0
2015-Jul-24 10:31N 51°31' W 002°42'0 0.0
2015-Jul-24 09:32N 51°31' W 002°42'0 0.0
2015-Jul-24 08:31N 51°31' W 002°42'0 0.0
2015-Jul-24 07:31N 51°31' W 002°42'0 0.0
2015-Jul-24 06:31N 51°31' W 002°42'0 0.0
2015-Jul-24 05:31N 51°31' W 002°42'0 0.0
2015-Jul-24 04:33N 51°31' W 002°42'0 0.0
2015-Jul-24 03:34N 51°31' W 002°42'0 0.0
2015-Jul-24 02:33N 51°31' W 002°42'0 0.0
2015-Jul-24 01:34N 51°31' W 002°42'0 0.0
2015-Jul-24 00:34N 51°31' W 002°42'0 0.0
2015-Jul-23 23:33N 51°31' W 002°42'1 0.6
2015-Jul-23 22:34N 51°30' W 002°43'7 6.7
2015-Jul-23 21:34N 51°28' W 002°53'1212.0
2015-Jul-23 20:33N 51°23' W 003°10'175 7.2
2015-Jul-22 20:19N 53°59' W 005°20'810.6
2015-Jul-22 19:33N 54°07' W 005°18'1010.4
2015-Jul-22 18:33N 54°17' W 005°16'10 9.8
2015-Jul-22 17:34N 54°27' W 005°16'9 8.8
2015-Jul-22 16:34N 54°36' W 005°20'9 9.4
2015-Jul-22 15:34N 54°43' W 005°30'1010.0
2015-Jul-22 14:33N 54°41' W 005°47'6 0.9
2015-Jul-22 08:09N 54°37' W 005°54'0 0.0
2015-Jul-22 06:12N 54°37' W 005°54'0 0.0
2015-Jul-22 04:30N 54°37' W 005°54'0 0.0
2015-Jul-22 03:24N 54°37' W 005°54'0 0.0
2015-Jul-22 02:30N 54°37' W 005°54'0 0.0
2015-Jul-22 01:30N 54°37' W 005°54'0 0.0
2015-Jul-22 00:18N 54°37' W 005°54'0 0.0
2015-Jul-21 23:33N 54°37' W 005°54'0 0.0
2015-Jul-21 22:27N 54°37' W 005°54'0 0.0
2015-Jul-21 21:33N 54°37' W 005°54'0 0.0
2015-Jul-21 20:30N 54°37' W 005°54'0 0.0
2015-Jul-21 19:30N 54°37' W 005°54'0 0.1
2015-Jul-21 18:30N 54°37' W 005°54'0 0.0
2015-Jul-21 17:30N 54°37' W 005°54'0 0.0
2015-Jul-21 16:33N 54°37' W 005°54'0 0.0
2015-Jul-21 15:18N 54°37' W 005°54'0 0.0
2015-Jul-21 14:27N 54°37' W 005°54'0 0.0
2015-Jul-21 13:30N 54°37' W 005°54'0 0.0
2015-Jul-21 12:25N 54°37' W 005°54'0 0.0
2015-Jul-21 11:34N 54°37' W 005°54'5 5.4
2015-Jul-21 10:34N 54°41' W 005°48'8 8.3
2015-Jul-21 09:34N 54°43' W 005°34'7 6.9
2015-Jul-21 08:34N 54°40' W 005°23'1010.1
2015-Jul-21 07:33N 54°32' W 005°13'1111.3
2015-Jul-21 06:33N 54°20' W 005°14'1211.6
2015-Jul-21 05:33N 54°11' W 005°27'1211.5
2015-Jul-21 04:33N 54°03' W 005°41'1110.9
2015-Jul-21 03:34N 53°57' W 005°55'1211.7
2015-Jul-21 02:33N 53°57' W 006°15'5 5.3
2015-Jul-21 01:33N 54°00' W 006°22'1 0.5
2015-Jul-21 00:33N 54°00' W 006°23'0 0.0
2015-Jul-20 23:33N 54°00' W 006°23'0 0.0
2015-Jul-20 22:34N 54°00' W 006°23'0 0.0
2015-Jul-20 21:33N 54°00' W 006°23'  

Dump ship's entire track history